Time;durP1;ratioP1;P1;durP2;ratioP2;P2;SDS_P1;SDS_P2;PMS_P1;PMS_P2;Temp;Humidity;BMP_temperature;BMP_pressure;BME280_temperature;BME280_humidity;BME280_pressure;Samples;Min_cycle;Max_cycle;Signal;HPM_P1;HPM_P2
2023/08/04 00:01:51;;;;;;;14.30;10.02;;;;;;;-141.23;100.00;62281.09;4985135;28;20056;-76
2023/08/04 00:05:19;;;;;;;19.60;10.23;;;;;;;-141.23;100.00;62281.09;4977451;28;20547;-75
2023/08/04 00:08:44;;;;;;;16.60;9.45;;;;;;;-141.23;100.00;62281.09;5016268;28;20095;-74
2023/08/04 00:12:09;;;;;;;14.65;8.93;;;;;;;-141.23;100.00;62281.09;4983583;28;20052;-75
2023/08/04 00:15:35;;;;;;;22.13;8.95;;;;;;;-141.23;100.00;62281.09;4999763;28;20060;-73
2023/08/04 00:18:59;;;;;;;13.77;9.13;;;;;;;-141.23;100.00;62281.09;4983351;28;20437;-73
2023/08/04 00:22:25;;;;;;;17.27;9.18;;;;;;;-141.23;100.00;62281.09;4983620;28;20045;-75
2023/08/04 00:25:50;;;;;;;14.07;9.18;;;;;;;-141.23;100.00;62281.09;4983818;28;20041;-76
2023/08/04 00:29:17;;;;;;;15.85;9.65;;;;;;;-141.23;100.00;62281.09;4983667;28;20037;-75
2023/08/04 00:32:43;;;;;;;13.65;10.18;;;;;;;-141.23;100.00;62281.09;4982940;28;20053;-76
2023/08/04 00:36:09;;;;;;;15.23;11.73;;;;;;;-141.23;100.00;62281.09;4983633;28;20468;-75
2023/08/04 00:39:37;;;;;;;15.85;10.52;;;;;;;-141.23;100.00;62281.09;5000212;28;20045;-74
2023/08/04 00:43:02;;;;;;;18.42;11.30;;;;;;;-141.23;100.00;62281.09;5015887;28;20480;-74
2023/08/04 00:46:33;;;;;;;18.90;11.05;;;;;;;-141.23;100.00;62281.09;4983369;28;20052;-74
2023/08/04 00:50:00;;;;;;;23.48;10.98;;;;;;;-141.23;100.00;62281.09;4983410;28;20136;-74
2023/08/04 00:53:28;;;;;;;14.77;10.65;;;;;;;-141.23;100.00;62281.09;5014621;28;20161;-75
2023/08/04 00:56:56;;;;;;;19.23;11.20;;;;;;;-141.23;100.00;62281.09;4966035;28;20143;-78
2023/08/04 01:00:21;;;;;;;14.88;9.90;;;;;;;-141.23;100.00;62281.09;4959992;28;20054;-75
2023/08/04 01:03:47;;;;;;;18.92;11.00;;;;;;;-141.23;100.00;62281.09;4943673;28;20105;-78
2023/08/04 01:07:25;;;;;;;16.67;10.70;;;;;;;-141.23;100.00;62281.09;4975084;28;20104;-73
2023/08/04 01:11:03;;;;;;;18.50;11.18;;;;;;;-141.23;100.00;62281.09;4975132;28;20093;-74
2023/08/04 01:14:28;;;;;;;19.65;10.40;;;;;;;-141.23;100.00;62281.09;4958690;28;20575;-73
2023/08/04 01:17:54;;;;;;;22.48;11.20;;;;;;;-141.23;100.00;62281.09;4959248;28;20053;-72
2023/08/04 01:21:20;;;;;;;19.77;11.13;;;;;;;-141.23;100.00;62281.09;4974513;28;20182;-73
2023/08/04 01:29:01;;;;;;;17.27;11.25;;;;;;;-141.23;100.00;62281.09;4959819;28;20034;-74
2023/08/04 01:32:28;;;;;;;16.27;11.30;;;;;;;-141.23;100.00;62281.09;4994099;28;20428;-78
2023/08/04 01:35:53;;;;;;;21.08;11.20;;;;;;;-141.23;100.00;62281.09;4946228;28;20050;-73
2023/08/04 01:39:19;;;;;;;17.45;11.25;;;;;;;-141.23;100.00;62281.09;4978011;28;20100;-74
2023/08/04 01:42:47;;;;;;;22.58;10.98;;;;;;;-141.23;100.00;62281.09;4970939;28;20053;-73
2023/08/04 01:46:12;;;;;;;17.33;10.63;;;;;;;-141.23;100.00;62281.09;4946446;28;20064;-74
2023/08/04 01:49:39;;;;;;;19.48;10.82;;;;;;;-141.23;100.00;62281.09;4981886;28;20599;-74
2023/08/04 01:53:03;;;;;;;14.65;9.82;;;;;;;-141.23;100.00;62281.09;4998509;28;20054;-73
2023/08/04 01:56:29;;;;;;;15.75;10.57;;;;;;;-141.23;100.00;62281.09;4979115;28;20148;-81
2023/08/04 01:59:55;;;;;;;18.73;10.25;;;;;;;-141.23;100.00;62281.09;4999401;28;20045;-74
2023/08/04 02:03:21;;;;;;;15.95;10.18;;;;;;;-141.23;100.00;62281.09;4975350;28;20045;-74
2023/08/04 02:06:49;;;;;;;25.02;10.75;;;;;;;-141.23;100.00;62281.09;4962659;28;20535;-74
2023/08/04 02:10:15;;;;;;;18.57;11.37;;;;;;;-141.23;100.00;62281.09;4942903;28;20046;-75
2023/08/04 02:13:43;;;;;;;18.35;12.07;;;;;;;-141.23;100.00;62281.09;4975605;28;20560;-74
2023/08/04 02:17:15;;;;;;;23.63;11.80;;;;;;;-141.23;100.00;62281.09;4926926;28;20046;-75
2023/08/04 02:20:41;;;;;;;21.83;11.43;;;;;;;-141.23;100.00;62281.09;4944277;28;20047;-75
2023/08/04 02:24:05;;;;;;;16.55;10.70;;;;;;;-141.23;100.00;62281.09;4970245;28;20482;-74
2023/08/04 02:27:33;;;;;;;22.63;11.55;;;;;;;-141.23;100.00;62281.09;5019186;28;20571;-75
2023/08/04 02:31:04;;;;;;;21.80;12.50;;;;;;;-141.23;100.00;62281.09;4979009;28;20492;-73
2023/08/04 02:34:33;;;;;;;17.50;10.77;;;;;;;-141.23;100.00;62281.09;4923996;28;20086;-79
2023/08/04 02:37:58;;;;;;;32.88;12.48;;;;;;;-141.23;100.00;62281.09;4901761;29;20048;-74
2023/08/04 02:41:25;;;;;;;20.92;12.48;;;;;;;-141.23;100.00;62281.09;4886099;29;20056;-76
2023/08/04 02:44:55;;;;;;;21.27;12.00;;;;;;;-141.23;100.00;62281.09;4898106;29;20156;-76
2023/08/04 02:48:20;;;;;;;19.88;12.73;;;;;;;-141.23;100.00;62281.09;4883733;29;20155;-75
2023/08/04 02:51:45;;;;;;;18.63;11.10;;;;;;;-141.23;100.00;62281.09;4868310;29;20053;-74
2023/08/04 02:55:11;;;;;;;19.05;10.02;;;;;;;-141.23;100.00;62281.09;4898434;29;20056;-74
2023/08/04 02:58:36;;;;;;;13.23;9.68;;;;;;;-141.23;100.00;62281.09;4871895;29;20061;-77
2023/08/04 03:02:00;;;;;;;16.10;9.60;;;;;;;-141.23;100.00;62281.09;4867799;29;20108;-75
2023/08/04 03:05:25;;;;;;;12.95;8.98;;;;;;;-141.23;100.00;62281.09;4925755;29;20384;-76
2023/08/04 03:08:50;;;;;;;14.90;8.40;;;;;;;-141.23;100.00;62281.09;4902593;29;20060;-74
2023/08/04 03:12:14;;;;;;;14.10;9.73;;;;;;;-141.23;100.00;62281.09;4885525;29;20055;-75
2023/08/04 03:15:38;;;;;;;15.50;9.80;;;;;;;-141.23;100.00;62281.09;4941332;28;20061;-73
2023/08/04 03:19:03;;;;;;;12.05;9.93;;;;;;;-141.23;100.00;62281.09;4973519;28;20397;-74
2023/08/04 03:22:28;;;;;;;14.25;9.35;;;;;;;-141.23;100.00;62281.09;4957682;28;20047;-74
2023/08/04 03:25:53;;;;;;;20.00;9.52;;;;;;;-141.23;100.00;62281.09;4944517;28;20051;-72
2023/08/04 03:29:18;;;;;;;19.55;10.35;;;;;;;-141.23;100.00;62281.09;4943961;28;20050;-73
2023/08/04 03:32:42;;;;;;;12.27;9.05;;;;;;;-141.23;100.00;62281.09;4960672;28;20045;-73
2023/08/04 03:36:08;;;;;;;17.85;9.90;;;;;;;-141.23;100.00;62281.09;4962978;28;20543;-73
2023/08/04 03:39:34;;;;;;;13.00;9.98;;;;;;;-141.23;100.00;62281.09;4985677;28;20111;-74
2023/08/04 03:42:59;;;;;;;14.52;9.90;;;;;;;-141.23;100.00;62281.09;5013265;28;20057;-74
2023/08/04 03:46:23;;;;;;;12.63;9.10;;;;;;;-141.23;100.00;62281.09;4995526;28;20266;-73
2023/08/04 03:49:50;;;;;;;15.55;9.00;;;;;;;-141.23;100.00;62281.09;4980864;28;20045;-74
2023/08/04 03:53:15;;;;;;;15.45;9.48;;;;;;;-141.23;100.00;62281.09;4981953;28;20049;-72
2023/08/04 03:56:40;;;;;;;21.00;10.05;;;;;;;-141.23;100.00;62281.09;4994409;28;20503;-72
2023/08/04 04:00:06;;;;;;;17.17;10.18;;;;;;;-141.23;100.00;62281.09;5018662;28;20036;-75
2023/08/04 04:03:37;;;;;;;14.70;10.07;;;;;;;-141.23;100.00;62281.09;5037111;28;20041;-72
2023/08/04 04:07:01;;;;;;;15.63;10.05;;;;;;;-141.23;100.00;62281.09;5002119;28;20053;-72
2023/08/04 04:10:26;;;;;;;16.67;9.18;;;;;;;-141.23;100.00;62281.09;4984174;28;20056;-72
2023/08/04 04:13:52;;;;;;;16.85;10.10;;;;;;;-141.23;100.00;62281.09;4984137;28;20045;-72
2023/08/04 04:17:16;;;;;;;13.73;10.20;;;;;;;-141.23;100.00;62281.09;4983966;28;20080;-72
2023/08/04 04:20:41;;;;;;;12.52;9.65;;;;;;;-141.23;100.00;62281.09;4983376;28;20396;-73
2023/08/04 04:24:05;;;;;;;15.95;9.60;;;;;;;-141.23;100.00;62281.09;4983738;28;20037;-73
2023/08/04 04:27:30;;;;;;;17.02;10.65;;;;;;;-141.23;100.00;62281.09;4983598;28;20053;-73
2023/08/04 04:30:56;;;;;;;16.75;11.05;;;;;;;-141.23;100.00;62281.09;4983594;28;20448;-73
2023/08/04 04:34:20;;;;;;;16.23;11.88;;;;;;;-141.23;100.00;62281.09;4999913;28;20048;-73
2023/08/04 04:37:45;;;;;;;16.27;10.75;;;;;;;-141.23;100.00;62281.09;4983139;28;20045;-73
2023/08/04 04:41:09;;;;;;;14.93;10.15;;;;;;;-141.23;100.00;62281.09;4983282;28;20163;-73
2023/08/04 04:44:34;;;;;;;12.45;10.05;;;;;;;-141.23;100.00;62281.09;4984614;28;20052;-72
2023/08/04 04:47:58;;;;;;;15.00;10.23;;;;;;;-141.23;100.00;62281.09;4983523;28;20063;-72
2023/08/04 04:51:23;;;;;;;14.27;9.95;;;;;;;-141.23;100.00;62281.09;4983189;28;20392;-72
2023/08/04 04:54:48;;;;;;;15.65;9.70;;;;;;;-141.23;100.00;62281.09;4999543;28;20088;-73
2023/08/04 04:58:14;;;;;;;11.27;9.88;;;;;;;-141.23;100.00;62281.09;4999645;28;20037;-72
2023/08/04 05:01:39;;;;;;;13.90;9.05;;;;;;;-141.23;100.00;62281.09;4983263;28;20492;-73
2023/08/04 05:05:03;;;;;;;17.98;9.02;;;;;;;-141.23;100.00;62281.09;4983073;28;20263;-73
2023/08/04 05:08:30;;;;;;;12.57;8.20;;;;;;;-141.23;100.00;62281.09;5015630;28;20058;-72
2023/08/04 05:11:54;;;;;;;15.77;8.90;;;;;;;-141.23;100.00;62281.09;4982994;28;20573;-72
2023/08/04 05:15:19;;;;;;;16.05;8.18;;;;;;;-141.23;100.00;62281.09;4982682;28;20064;-73
2023/08/04 05:18:43;;;;;;;14.07;8.68;;;;;;;-141.23;100.00;62281.09;4982619;28;20499;-72
2023/08/04 05:22:08;;;;;;;10.75;7.93;;;;;;;-141.23;100.00;62281.09;4982893;28;20124;-72
2023/08/04 05:25:32;;;;;;;13.73;8.15;;;;;;;-141.23;100.00;62281.09;4982251;28;20037;-72
2023/08/04 05:29:16;;;;;;;16.58;8.52;;;;;;;-141.23;100.00;62281.09;4982786;28;20049;-73
2023/08/04 05:32:41;;;;;;;14.57;8.82;;;;;;;-141.23;100.00;62281.09;4998911;28;20045;-72
2023/08/04 05:36:06;;;;;;;14.57;8.63;;;;;;;-141.23;100.00;62281.09;4999490;28;20163;-73
2023/08/04 05:39:34;;;;;;;16.63;8.90;;;;;;;-141.23;100.00;62281.09;5034026;28;20091;-72
2023/08/04 05:42:59;;;;;;;13.57;9.60;;;;;;;-141.23;100.00;62281.09;5017221;28;20110;-72
2023/08/04 05:46:23;;;;;;;14.45;9.57;;;;;;;-141.23;100.00;62281.09;5017358;28;20045;-73
2023/08/04 05:49:49;;;;;;;11.75;8.43;;;;;;;-141.23;100.00;62281.09;5001244;28;20053;-72
2023/08/04 05:53:14;;;;;;;11.63;9.57;;;;;;;-141.23;100.00;62281.09;5013742;28;20060;-72
2023/08/04 05:56:39;;;;;;;12.15;8.30;;;;;;;-141.23;100.00;62281.09;4996756;28;20057;-72
2023/08/04 06:00:05;;;;;;;12.98;8.13;;;;;;;-141.23;100.00;62281.09;5013762;28;20480;-72
2023/08/04 06:03:32;;;;;;;14.93;8.05;;;;;;;-141.23;100.00;62281.09;5014346;28;20049;-73
2023/08/04 06:06:58;;;;;;;16.95;9.25;;;;;;;-141.23;100.00;62281.09;4981785;28;20041;-72
2023/08/04 06:10:23;;;;;;;13.32;8.60;;;;;;;-141.23;100.00;62281.09;4997526;28;20057;-73
2023/08/04 06:13:49;;;;;;;12.07;7.97;;;;;;;-141.23;100.00;62281.09;4965024;28;20041;-73
2023/08/04 06:17:14;;;;;;;10.43;7.88;;;;;;;-141.23;100.00;62281.09;5012736;28;20054;-73
2023/08/04 06:20:40;;;;;;;10.93;7.28;;;;;;;-141.23;100.00;62281.09;5013261;28;20115;-73
2023/08/04 06:24:05;;;;;;;9.73;7.43;;;;;;;-141.23;100.00;62281.09;4966150;28;20112;-73
2023/08/04 06:27:30;;;;;;;17.27;7.32;;;;;;;-141.23;100.00;62281.09;4998977;28;20081;-73
2023/08/04 06:30:55;;;;;;;12.43;7.15;;;;;;;-141.23;100.00;62281.09;4964319;28;20048;-73
2023/08/04 06:34:20;;;;;;;14.18;7.65;;;;;;;-141.23;100.00;62281.09;4963940;28;20049;-72
2023/08/04 06:37:44;;;;;;;12.18;7.65;;;;;;;-141.23;100.00;62281.09;4964031;28;20073;-74
2023/08/04 06:41:10;;;;;;;9.40;7.63;;;;;;;-141.23;100.00;62281.09;4964214;28;20049;-73
2023/08/04 06:44:34;;;;;;;9.57;6.82;;;;;;;-141.23;100.00;62281.09;4996039;28;20151;-73
2023/08/04 06:48:00;;;;;;;14.55;7.72;;;;;;;-141.23;100.00;62281.09;4980774;28;20122;-72
2023/08/04 06:51:25;;;;;;;9.88;7.78;;;;;;;-141.23;100.00;62281.09;4980725;28;20044;-73
2023/08/04 06:54:49;;;;;;;11.43;7.25;;;;;;;-141.23;100.00;62281.09;4980976;28;20072;-73
2023/08/04 06:58:14;;;;;;;8.70;7.13;;;;;;;-141.23;100.00;62281.09;4980866;28;20440;-73
2023/08/04 07:01:38;;;;;;;11.82;7.07;;;;;;;-141.23;100.00;62281.09;4980649;28;20122;-73
2023/08/04 07:05:03;;;;;;;19.98;6.53;;;;;;;-141.23;100.00;62281.09;4996669;28;20052;-72
2023/08/04 07:08:29;;;;;;;9.85;6.90;;;;;;;-141.23;100.00;62281.09;5000388;28;20052;-71
2023/08/04 07:11:54;;;;;;;11.32;5.40;;;;;;;-141.23;100.00;62281.09;4999986;28;20045;-73
2023/08/04 07:15:19;;;;;;;7.40;5.53;;;;;;;-141.23;100.00;62281.09;4943571;28;1645203;-73
2023/08/04 07:18:43;;;;;;;8.55;5.00;;;;;;;-141.23;100.00;62281.09;4985244;28;20280;-73
2023/08/04 07:22:08;;;;;;;6.97;4.82;;;;;;;-141.23;100.00;62281.09;4984688;28;20052;-73
2023/08/04 07:25:33;;;;;;;7.65;4.25;;;;;;;-141.23;100.00;62281.09;4985639;28;20060;-73
2023/08/04 07:28:59;;;;;;;6.28;4.53;;;;;;;-141.23;100.00;62281.09;5001924;28;20046;-72
2023/08/04 07:32:25;;;;;;;7.38;4.20;;;;;;;-141.23;100.00;62281.09;5011283;28;20064;-73
2023/08/04 07:35:56;;;;;;;8.48;3.45;;;;;;;-141.23;100.00;62281.09;5019269;28;20072;-74
2023/08/04 07:39:20;;;;;;;5.95;3.30;;;;;;;-141.23;100.00;62281.09;5002724;28;20045;-73
2023/08/04 07:42:46;;;;;;;3.47;3.17;;;;;;;-141.23;100.00;62281.09;5002987;28;20037;-73
2023/08/04 07:46:18;;;;;;;5.05;2.90;;;;;;;-141.23;100.00;62281.09;5011037;28;20045;-73
2023/08/04 07:49:42;;;;;;;6.25;3.10;;;;;;;-141.23;100.00;62281.09;5020007;28;20053;-74
2023/08/04 07:53:07;;;;;;;4.15;3.10;;;;;;;-141.23;100.00;62281.09;5003026;28;20049;-74
2023/08/04 07:56:32;;;;;;;4.18;2.85;;;;;;;-141.23;100.00;62281.09;5002515;28;20040;-74
2023/08/04 07:59:58;;;;;;;4.50;3.33;;;;;;;-141.23;100.00;62281.09;5002387;28;20143;-74
2023/08/04 08:03:22;;;;;;;3.83;3.10;;;;;;;-141.23;100.00;62281.09;5002310;28;20560;-73
2023/08/04 08:06:47;;;;;;;6.85;3.20;;;;;;;-141.23;100.00;62281.09;5004075;28;20041;-74
2023/08/04 08:10:12;;;;;;;5.88;2.85;;;;;;;-141.23;100.00;62281.09;4990339;28;20053;-74
2023/08/04 08:13:37;;;;;;;3.63;2.80;;;;;;;-141.23;100.00;62281.09;4999951;28;20072;-74
2023/08/04 08:17:09;;;;;;;3.88;2.80;;;;;;;-141.23;100.00;62281.09;5000027;28;20044;-74
2023/08/04 08:20:33;;;;;;;4.13;2.25;;;;;;;-141.23;100.00;62281.09;5016356;28;20076;-73
2023/08/04 08:23:58;;;;;;;3.47;2.97;;;;;;;-141.23;100.00;62281.09;4999800;28;20041;-73
2023/08/04 08:27:25;;;;;;;3.95;3.03;;;;;;;-141.23;100.00;62281.09;4983502;28;20048;-74
2023/08/04 08:30:52;;;;;;;4.88;2.88;;;;;;;-141.23;100.00;62281.09;4999963;28;20045;-78
2023/08/04 08:34:17;;;;;;;9.85;2.72;;;;;;;-141.23;100.00;62281.09;4983844;28;20512;-73
2023/08/04 08:37:43;;;;;;;7.50;3.17;;;;;;;-141.23;100.00;62281.09;4999741;28;20075;-76
2023/08/04 08:41:11;;;;;;;6.38;3.03;;;;;;;-141.23;100.00;62281.09;4984018;28;20080;-73
2023/08/04 08:44:35;;;;;;;10.48;2.97;;;;;;;-141.23;100.00;62281.09;4983822;28;20436;-73
2023/08/04 08:48:00;;;;;;;7.78;2.90;;;;;;;-141.23;100.00;62281.09;4999550;28;20045;-72
2023/08/04 08:51:26;;;;;;;5.18;2.80;;;;;;;-141.23;100.00;62281.09;5030959;28;20247;-72
2023/08/04 08:54:51;;;;;;;4.57;2.78;;;;;;;-141.23;100.00;62281.09;4982398;28;20167;-73
2023/08/04 08:58:16;;;;;;;3.05;2.75;;;;;;;-141.23;100.00;62281.09;4981917;28;20053;-73
2023/08/04 09:01:42;;;;;;;4.22;3.15;;;;;;;-141.23;100.00;62281.09;4983466;28;20092;-74
2023/08/04 09:05:07;;;;;;;8.20;2.90;;;;;;;-141.23;100.00;62281.09;4982879;28;20118;-73
2023/08/04 09:08:31;;;;;;;5.07;2.90;;;;;;;-141.23;100.00;62281.09;4981691;28;20127;-72
2023/08/04 09:11:59;;;;;;;5.53;2.40;;;;;;;-141.23;100.00;62281.09;4997692;28;20049;-72
2023/08/04 09:15:31;;;;;;;3.85;2.88;;;;;;;-141.23;100.00;62281.09;4981816;28;20072;-72
2023/08/04 09:19:00;;;;;;;12.02;3.28;;;;;;;-141.23;100.00;62281.09;4981546;28;20089;-73
2023/08/04 09:22:25;;;;;;;3.75;2.55;;;;;;;-141.23;100.00;62281.09;4981885;28;20056;-73
2023/08/04 09:25:53;;;;;;;5.25;2.60;;;;;;;-141.23;100.00;62281.09;4982562;28;20072;-74
2023/08/04 09:29:20;;;;;;;3.87;2.83;;;;;;;-141.23;100.00;62281.09;4982527;28;20049;-73
2023/08/04 09:32:47;;;;;;;7.40;2.97;;;;;;;-141.23;100.00;62281.09;4990762;28;20443;-73
2023/08/04 09:36:12;;;;;;;4.22;2.40;;;;;;;-141.23;100.00;62281.09;4982543;28;20041;-73
2023/08/04 09:39:43;;;;;;;2.90;2.30;;;;;;;-141.23;100.00;62281.09;4982631;28;20541;-73
2023/08/04 09:43:08;;;;;;;2.50;2.30;;;;;;;-141.23;100.00;62281.09;4982310;28;20033;-77
2023/08/04 09:46:40;;;;;;;4.32;2.40;;;;;;;-141.23;100.00;62281.09;4997744;28;20506;-76
2023/08/04 09:50:08;;;;;;;6.55;2.90;;;;;;;-141.23;100.00;62281.09;5031216;28;20049;-83
2023/08/04 09:53:52;;;;;;;4.80;2.08;;;;;;;-141.23;100.00;62281.09;5013694;28;20127;-83
2023/08/04 09:57:17;;;;;;;4.47;1.80;;;;;;;-141.23;100.00;62281.09;4998779;28;20067;-84
2023/08/04 10:00:42;;;;;;;1.98;1.88;;;;;;;-141.23;100.00;62281.09;5031508;28;20096;-85
2023/08/04 10:04:06;;;;;;;2.00;1.80;;;;;;;-141.23;100.00;62281.09;5014817;28;20041;-79
2023/08/04 10:07:31;;;;;;;2.78;2.10;;;;;;;-141.23;100.00;62281.09;4985523;28;20061;-82
2023/08/04 10:10:56;;;;;;;2.78;1.77;;;;;;;-141.23;100.00;62281.09;4997679;28;20087;-81
2023/08/04 10:14:22;;;;;;;4.07;2.35;;;;;;;-141.23;100.00;62281.09;4996511;28;20107;-83
2023/08/04 10:17:47;;;;;;;5.35;1.70;;;;;;;-141.23;100.00;62281.09;4997005;28;20049;-80
2023/08/04 10:21:11;;;;;;;3.35;1.70;;;;;;;-141.23;100.00;62281.09;4996388;28;20061;-77
2023/08/04 10:24:37;;;;;;;3.75;1.90;;;;;;;-141.23;100.00;62281.09;4996297;28;20045;-79
2023/08/04 10:28:17;;;;;;;5.60;2.00;;;;;;;-141.23;100.00;62281.09;5013583;28;20097;-80
2023/08/04 10:31:42;;;;;;;4.97;2.00;;;;;;;-141.23;100.00;62281.09;4997511;28;20388;-79
2023/08/04 10:35:18;;;;;;;1.92;1.80;;;;;;;-141.23;100.00;62281.09;5014651;28;20041;-83
2023/08/04 10:38:53;;;;;;;2.35;1.52;;;;;;;-141.23;100.00;62281.09;5023219;28;20041;-84
2023/08/04 10:42:21;;;;;;;4.38;1.70;;;;;;;-141.23;100.00;62281.09;5017720;28;20040;-86
2023/08/04 10:45:52;;;;;;;2.63;1.70;;;;;;;-141.23;100.00;62281.09;5017429;28;20072;-81
2023/08/04 10:49:18;;;;;;;4.43;1.85;;;;;;;-141.23;100.00;62281.09;5033887;28;20291;-82
2023/08/04 10:52:43;;;;;;;2.72;1.60;;;;;;;-141.23;100.00;62281.09;5033704;28;20076;-83
2023/08/04 10:56:11;;;;;;;1.70;1.60;;;;;;;-141.23;100.00;62281.09;5000794;28;20048;-81
2023/08/04 10:59:36;;;;;;;2.67;1.80;;;;;;;-141.23;100.00;62281.09;5036700;28;20168;-85
2023/08/04 11:03:01;;;;;;;4.07;1.70;;;;;;;-141.23;100.00;62281.09;5050803;28;20283;-81
2023/08/04 11:06:25;;;;;;;4.32;1.85;;;;;;;-141.23;100.00;62281.09;5000390;28;20045;-77
2023/08/04 11:09:51;;;;;;;2.38;2.03;;;;;;;-141.23;100.00;62281.09;5000390;28;20596;-77
2023/08/04 11:13:17;;;;;;;7.60;1.95;;;;;;;-141.23;100.00;62281.09;5015543;28;20271;-77
2023/08/04 11:16:45;;;;;;;3.08;2.17;;;;;;;-141.23;100.00;62281.09;5016467;28;20056;-81
2023/08/04 11:20:11;;;;;;;3.95;2.03;;;;;;;-141.23;100.00;62281.09;5000144;28;20041;-75
2023/08/04 11:23:37;;;;;;;4.18;2.20;;;;;;;-141.23;100.00;62281.09;5016886;28;20041;-80
2023/08/04 11:27:01;;;;;;;8.07;2.17;;;;;;;-141.23;100.00;62281.09;5016610;28;20034;-81
2023/08/04 11:30:25;;;;;;;11.32;2.75;;;;;;;-141.23;100.00;62281.09;5032570;28;20446;-75
2023/08/04 11:33:50;;;;;;;5.60;2.63;;;;;;;-141.23;100.00;62281.09;5016697;28;20060;-79
2023/08/04 11:37:15;;;;;;;4.22;2.55;;;;;;;-141.23;100.00;62281.09;5025231;28;20057;-76
2023/08/04 11:40:54;;;;;;;4.55;2.60;;;;;;;-141.23;100.00;62281.09;5025990;28;20053;-78
2023/08/04 11:44:21;;;;;;;2.90;2.47;;;;;;;-141.23;100.00;62281.09;5015500;28;20384;-78
2023/08/04 11:47:46;;;;;;;2.88;2.50;;;;;;;-141.23;100.00;62281.09;5011661;28;20102;-78
2023/08/04 11:51:10;;;;;;;3.88;2.35;;;;;;;-141.23;100.00;62281.09;5012549;28;20044;-77
2023/08/04 11:54:36;;;;;;;8.93;3.17;;;;;;;-141.23;100.00;62281.09;5026865;28;20105;-78
2023/08/04 11:58:00;;;;;;;6.10;2.65;;;;;;;-141.23;100.00;62281.09;5008584;28;20037;-79
2023/08/04 12:01:34;;;;;;;3.70;2.40;;;;;;;-141.23;100.00;62281.09;5033950;28;20118;-79
2023/08/04 12:05:09;;;;;;;3.38;2.40;;;;;;;-141.23;100.00;62281.09;5000027;28;20056;-79
2023/08/04 12:08:34;;;;;;;2.92;2.08;;;;;;;-141.23;100.00;62281.09;5006630;28;20058;-77
2023/08/04 12:12:00;;;;;;;3.25;2.58;;;;;;;-141.23;100.00;62281.09;4984880;28;20151;-78
2023/08/04 12:15:27;;;;;;;7.05;2.42;;;;;;;-141.23;100.00;62281.09;5034167;28;20060;-77
2023/08/04 12:18:51;;;;;;;3.13;2.40;;;;;;;-141.23;100.00;62281.09;5031248;28;20041;-78
2023/08/04 12:22:17;;;;;;;5.75;2.90;;;;;;;-141.23;100.00;62281.09;5000095;28;20536;-76
2023/08/04 12:25:41;;;;;;;3.92;2.75;;;;;;;-141.23;100.00;62281.09;5016401;28;20391;-76
2023/08/04 12:29:05;;;;;;;5.90;2.85;;;;;;;-141.23;100.00;62281.09;4999447;28;20127;-80
2023/08/04 12:32:30;;;;;;;3.45;2.65;;;;;;;-141.23;100.00;62281.09;5016622;28;20383;-77
2023/08/04 12:35:56;;;;;;;10.85;2.97;;;;;;;-141.23;100.00;62281.09;4998040;28;20738;-76
2023/08/04 12:39:22;;;;;;;4.85;2.80;;;;;;;-141.23;100.00;62281.09;5019303;28;20038;-80
2023/08/04 12:42:46;;;;;;;5.13;2.70;;;;;;;-141.23;100.00;62281.09;5027327;28;20034;-81
2023/08/04 12:46:10;;;;;;;7.18;3.00;;;;;;;-141.23;100.00;62281.09;5013891;28;20372;-78
2023/08/04 12:49:35;;;;;;;4.15;2.80;;;;;;;-141.23;100.00;62281.09;5008857;28;20041;-81
2023/08/04 12:53:00;;;;;;;5.00;2.67;;;;;;;-141.23;100.00;62281.09;4993357;28;20037;-75
2023/08/04 12:56:26;;;;;;;4.30;2.60;;;;;;;-141.23;100.00;62281.09;5031262;28;20046;-77
2023/08/04 12:59:50;;;;;;;7.03;2.67;;;;;;;-141.23;100.00;62281.09;4998421;28;20041;-73
2023/08/04 13:03:15;;;;;;;8.80;3.40;;;;;;;-141.23;100.00;62281.09;4982165;28;20427;-78
2023/08/04 13:06:39;;;;;;;5.70;2.88;;;;;;;-141.23;100.00;62281.09;5005329;28;20139;-75
2023/08/04 13:10:04;;;;;;;4.57;3.00;;;;;;;-141.23;100.00;62281.09;4998618;28;20380;-78
2023/08/04 13:13:29;;;;;;;10.32;3.00;;;;;;;-141.23;100.00;62281.09;5038313;28;20045;-76
2023/08/04 13:16:53;;;;;;;4.25;3.20;;;;;;;-141.23;100.00;62281.09;5009653;28;20495;-74
2023/08/04 13:20:18;;;;;;;5.60;3.08;;;;;;;-141.23;100.00;62281.09;5025551;28;20036;-75
2023/08/04 13:23:44;;;;;;;8.88;3.00;;;;;;;-141.23;100.00;62281.09;4998355;28;20456;-74
2023/08/04 13:27:08;;;;;;;9.23;3.15;;;;;;;-141.23;100.00;62281.09;5006969;28;20045;-74
2023/08/04 13:30:33;;;;;;;5.22;3.13;;;;;;;-141.23;100.00;62281.09;5007422;28;20045;-75
2023/08/04 13:33:58;;;;;;;5.80;3.20;;;;;;;-141.23;100.00;62281.09;5008959;28;20116;-77
2023/08/04 13:37:23;;;;;;;4.97;3.28;;;;;;;-141.23;100.00;62281.09;5013924;28;20094;-78
2023/08/04 13:40:48;;;;;;;4.43;3.38;;;;;;;-141.23;100.00;62281.09;4997954;28;20041;-78
2023/08/04 13:44:13;;;;;;;4.82;3.40;;;;;;;-141.23;100.00;62281.09;4998050;28;20037;-77
2023/08/04 13:47:37;;;;;;;6.80;3.00;;;;;;;-141.23;100.00;62281.09;4992998;28;20041;-79
2023/08/04 13:51:03;;;;;;;4.90;2.95;;;;;;;-141.23;100.00;62281.09;5001699;28;20048;-78
2023/08/04 13:54:28;;;;;;;3.95;3.20;;;;;;;-141.23;100.00;62281.09;5018094;28;20044;-76
2023/08/04 13:57:52;;;;;;;5.53;3.20;;;;;;;-141.23;100.00;62281.09;5017596;28;20045;-78
2023/08/04 14:01:17;;;;;;;5.60;3.20;;;;;;;-141.23;100.00;62281.09;5033729;28;20052;-77
2023/08/04 14:04:42;;;;;;;7.22;3.30;;;;;;;-141.23;100.00;62281.09;5033444;28;20129;-75
2023/08/04 14:08:06;;;;;;;6.70;3.70;;;;;;;-141.23;100.00;62281.09;5009116;28;20041;-76
2023/08/04 14:11:31;;;;;;;5.57;3.60;;;;;;;-141.23;100.00;62281.09;5021110;28;20053;-74
2023/08/04 14:14:55;;;;;;;5.32;3.05;;;;;;;-141.23;100.00;62281.09;5017667;28;20053;-76
2023/08/04 14:18:19;;;;;;;4.55;3.05;;;;;;;-141.23;100.00;62281.09;5020755;28;20052;-76
2023/08/04 14:21:44;;;;;;;9.00;3.38;;;;;;;-141.23;100.00;62281.09;5037878;28;20041;-75
2023/08/04 14:25:09;;;;;;;5.57;3.20;;;;;;;-141.23;100.00;62281.09;5021225;28;20048;-75
2023/08/04 14:28:35;;;;;;;7.53;3.35;;;;;;;-141.23;100.00;62281.09;5037769;28;20068;-80
2023/08/04 14:32:00;;;;;;;7.10;3.40;;;;;;;-141.23;100.00;62281.09;5024259;28;20514;-79
2023/08/04 14:35:24;;;;;;;7.45;3.47;;;;;;;-141.23;100.00;62281.09;5012201;28;20029;-76
2023/08/04 14:38:49;;;;;;;5.93;3.58;;;;;;;-141.23;100.00;62281.09;5029215;28;20472;-74
2023/08/04 14:42:13;;;;;;;6.20;3.22;;;;;;;-141.23;100.00;62281.09;5011777;28;20091;-76
2023/08/04 14:45:38;;;;;;;5.45;3.17;;;;;;;-141.23;100.00;62281.09;5011191;28;20047;-75
2023/08/04 14:49:06;;;;;;;3.72;3.30;;;;;;;-141.23;100.00;62281.09;5019453;28;20051;-74
2023/08/04 14:52:31;;;;;;;10.68;3.70;;;;;;;-141.23;100.00;62281.09;5015888;28;20048;-76
2023/08/04 14:55:55;;;;;;;5.20;3.42;;;;;;;-141.23;100.00;62281.09;5018218;28;20040;-74
2023/08/04 14:59:19;;;;;;;11.10;3.80;;;;;;;-141.23;100.00;62281.09;5011345;28;20120;-75
2023/08/04 15:02:43;;;;;;;5.32;3.60;;;;;;;-141.23;100.00;62281.09;5011145;28;20037;-76
2023/08/04 15:06:10;;;;;;;6.35;3.50;;;;;;;-141.23;100.00;62281.09;5027904;28;20049;-76
2023/08/04 15:09:35;;;;;;;6.20;3.58;;;;;;;-141.23;100.00;62281.09;5038004;28;20044;-75
2023/08/04 15:12:59;;;;;;;7.53;3.75;;;;;;;-141.23;100.00;62281.09;5042453;28;20128;-76
2023/08/04 15:16:23;;;;;;;9.15;3.85;;;;;;;-141.23;100.00;62281.09;5037860;28;20057;-75
2023/08/04 15:19:48;;;;;;;8.73;3.75;;;;;;;-141.23;100.00;62281.09;5019991;28;20395;-76
2023/08/04 15:23:12;;;;;;;6.90;3.70;;;;;;;-141.23;100.00;62281.09;5036327;28;20041;-76
2023/08/04 15:26:36;;;;;;;9.68;3.70;;;;;;;-141.23;100.00;62281.09;5018320;28;20056;-76
2023/08/04 15:30:01;;;;;;;4.20;3.75;;;;;;;-141.23;100.00;62281.09;5042913;28;20120;-76
2023/08/04 15:33:31;;;;;;;7.45;4.03;;;;;;;-141.23;100.00;62281.09;5027415;28;20052;-75